sensor_id;sensor_type;location;lat;lon;timestamp;pressure;altitude;pressure_sealevel;temperature;humidity
27202;BME280;14717;46.924;15.474;2023-12-04T00:01:24;98654.66;;;-5.09;100.00
27202;BME280;14717;46.924;15.474;2023-12-04T00:03:51;98654.03;;;-5.19;100.00
27202;BME280;14717;46.924;15.474;2023-12-04T00:06:16;98657.09;;;-5.30;100.00
27202;BME280;14717;46.924;15.474;2023-12-04T00:08:42;98654.56;;;-5.31;100.00
27202;BME280;14717;46.924;15.474;2023-12-04T00:11:08;98650.03;;;-5.31;100.00
27202;BME280;14717;46.924;15.474;2023-12-04T00:13:33;98654.03;;;-5.19;100.00
27202;BME280;14717;46.924;15.474;2023-12-04T00:15:59;98653.56;;;-5.00;100.00
27202;BME280;14717;46.924;15.474;2023-12-04T00:18:25;98652.16;;;-4.88;100.00
27202;BME280;14717;46.924;15.474;2023-12-04T00:20:50;98655.44;;;-4.78;100.00
27202;BME280;14717;46.924;15.474;2023-12-04T00:23:16;98656.22;;;-4.70;100.00
27202;BME280;14717;46.924;15.474;2023-12-04T00:25:41;98662.94;;;-4.66;100.00
27202;BME280;14717;46.924;15.474;2023-12-04T00:28:07;98653.19;;;-4.89;100.00
27202;BME280;14717;46.924;15.474;2023-12-04T00:30:32;98644.84;;;-5.02;100.00
27202;BME280;14717;46.924;15.474;2023-12-04T00:32:57;98645.31;;;-4.99;100.00
27202;BME280;14717;46.924;15.474;2023-12-04T00:35:23;98647.16;;;-4.91;100.00
27202;BME280;14717;46.924;15.474;2023-12-04T00:37:48;98648.91;;;-5.06;100.00
27202;BME280;14717;46.924;15.474;2023-12-04T00:40:13;98644.56;;;-5.15;100.00
27202;BME280;14717;46.924;15.474;2023-12-04T00:42:39;98645.22;;;-5.13;100.00
27202;BME280;14717;46.924;15.474;2023-12-04T00:45:05;98636.88;;;-5.26;100.00
27202;BME280;14717;46.924;15.474;2023-12-04T00:47:30;98642.00;;;-5.39;100.00
27202;BME280;14717;46.924;15.474;2023-12-04T00:49:56;98641.63;;;-5.36;100.00
27202;BME280;14717;46.924;15.474;2023-12-04T00:52:21;98639.84;;;-5.43;100.00
27202;BME280;14717;46.924;15.474;2023-12-04T00:54:46;98645.47;;;-5.22;100.00
27202;BME280;14717;46.924;15.474;2023-12-04T00:57:12;98646.91;;;-5.42;100.00
27202;BME280;14717;46.924;15.474;2023-12-04T00:59:37;98642.72;;;-5.52;100.00
27202;BME280;14717;46.924;15.474;2023-12-04T01:02:03;98643.03;;;-5.48;100.00
27202;BME280;14717;46.924;15.474;2023-12-04T01:04:29;98646.69;;;-5.33;100.00
27202;BME280;14717;46.924;15.474;2023-12-04T01:06:55;98642.56;;;-5.21;100.00
27202;BME280;14717;46.924;15.474;2023-12-04T01:09:20;98646.91;;;-5.12;100.00
27202;BME280;14717;46.924;15.474;2023-12-04T01:11:51;98642.53;;;-5.13;100.00
27202;BME280;14717;46.924;15.474;2023-12-04T01:14:17;98641.22;;;-5.17;100.00
27202;BME280;14717;46.924;15.474;2023-12-04T01:16:42;98636.53;;;-5.23;100.00
27202;BME280;14717;46.924;15.474;2023-12-04T01:19:07;98640.00;;;-5.14;100.00
27202;BME280;14717;46.924;15.474;2023-12-04T01:21:33;98650.56;;;-5.05;100.00
27202;BME280;14717;46.924;15.474;2023-12-04T01:23:58;98639.97;;;-5.07;100.00
27202;BME280;14717;46.924;15.474;2023-12-04T01:26:23;98651.09;;;-5.09;100.00
27202;BME280;14717;46.924;15.474;2023-12-04T01:28:49;98649.97;;;-5.15;100.00
27202;BME280;14717;46.924;15.474;2023-12-04T01:31:14;98647.66;;;-5.26;100.00
27202;BME280;14717;46.924;15.474;2023-12-04T01:33:39;98647.53;;;-5.32;100.00
27202;BME280;14717;46.924;15.474;2023-12-04T01:36:05;98649.69;;;-5.28;100.00
27202;BME280;14717;46.924;15.474;2023-12-04T01:38:30;98634.84;;;-5.54;100.00
27202;BME280;14717;46.924;15.474;2023-12-04T01:40:56;98637.75;;;-5.63;100.00
27202;BME280;14717;46.924;15.474;2023-12-04T01:43:21;98636.41;;;-5.67;100.00
27202;BME280;14717;46.924;15.474;2023-12-04T01:45:47;98630.50;;;-5.63;100.00
27202;BME280;14717;46.924;15.474;2023-12-04T01:48:13;98634.38;;;-5.65;100.00
27202;BME280;14717;46.924;15.474;2023-12-04T01:50:39;98628.63;;;-5.54;100.00
27202;BME280;14717;46.924;15.474;2023-12-04T01:53:05;98621.03;;;-5.51;100.00
27202;BME280;14717;46.924;15.474;2023-12-04T01:55:32;98623.84;;;-5.37;100.00
27202;BME280;14717;46.924;15.474;2023-12-04T01:58:00;98621.50;;;-5.40;100.00
27202;BME280;14717;46.924;15.474;2023-12-04T02:00:29;98618.94;;;-5.33;100.00
27202;BME280;14717;46.924;15.474;2023-12-04T02:02:54;98624.34;;;-5.41;100.00
27202;BME280;14717;46.924;15.474;2023-12-04T02:05:21;98611.94;;;-5.42;100.00
27202;BME280;14717;46.924;15.474;2023-12-04T02:07:48;98615.50;;;-5.57;100.00
27202;BME280;14717;46.924;15.474;2023-12-04T02:10:13;98608.56;;;-5.74;100.00
27202;BME280;14717;46.924;15.474;2023-12-04T02:12:39;98601.28;;;-6.04;100.00
27202;BME280;14717;46.924;15.474;2023-12-04T02:15:05;98604.16;;;-6.21;100.00
27202;BME280;14717;46.924;15.474;2023-12-04T02:17:31;98603.97;;;-6.12;100.00
27202;BME280;14717;46.924;15.474;2023-12-04T02:19:57;98602.66;;;-6.16;100.00
27202;BME280;14717;46.924;15.474;2023-12-04T02:22:23;98605.09;;;-5.98;100.00
27202;BME280;14717;46.924;15.474;2023-12-04T02:24:48;98602.22;;;-5.81;100.00
27202;BME280;14717;46.924;15.474;2023-12-04T02:27:22;98608.97;;;-5.93;100.00
27202;BME280;14717;46.924;15.474;2023-12-04T02:29:59;98610.47;;;-5.91;100.00
27202;BME280;14717;46.924;15.474;2023-12-04T02:32:31;98603.53;;;-5.77;100.00
27202;BME280;14717;46.924;15.474;2023-12-04T02:34:59;98601.13;;;-5.72;100.00
27202;BME280;14717;46.924;15.474;2023-12-04T02:37:27;98595.56;;;-5.71;100.00
27202;BME280;14717;46.924;15.474;2023-12-04T02:39:53;98604.56;;;-5.78;100.00
27202;BME280;14717;46.924;15.474;2023-12-04T02:42:21;98600.69;;;-5.84;100.00
27202;BME280;14717;46.924;15.474;2023-12-04T02:44:46;98607.72;;;-5.75;100.00
27202;BME280;14717;46.924;15.474;2023-12-04T02:47:12;98601.88;;;-5.78;100.00
27202;BME280;14717;46.924;15.474;2023-12-04T02:49:37;98617.03;;;-5.93;100.00
27202;BME280;14717;46.924;15.474;2023-12-04T02:52:03;98603.56;;;-5.85;100.00
27202;BME280;14717;46.924;15.474;2023-12-04T02:54:28;98594.66;;;-5.86;100.00
27202;BME280;14717;46.924;15.474;2023-12-04T02:56:54;98592.63;;;-5.84;100.00
27202;BME280;14717;46.924;15.474;2023-12-04T02:59:19;98591.47;;;-5.81;100.00
27202;BME280;14717;46.924;15.474;2023-12-04T03:01:44;98597.28;;;-6.16;100.00
27202;BME280;14717;46.924;15.474;2023-12-04T03:04:10;98593.41;;;-6.21;100.00
27202;BME280;14717;46.924;15.474;2023-12-04T03:06:35;98595.63;;;-6.32;100.00
27202;BME280;14717;46.924;15.474;2023-12-04T03:09:03;98589.38;;;-6.09;100.00
27202;BME280;14717;46.924;15.474;2023-12-04T03:11:29;98588.00;;;-6.05;100.00
27202;BME280;14717;46.924;15.474;2023-12-04T03:13:54;98589.78;;;-5.90;100.00
27202;BME280;14717;46.924;15.474;2023-12-04T03:16:19;98584.38;;;-5.82;100.00
27202;BME280;14717;46.924;15.474;2023-12-04T03:18:45;98598.44;;;-6.10;100.00
27202;BME280;14717;46.924;15.474;2023-12-04T03:21:10;98592.25;;;-6.19;100.00
27202;BME280;14717;46.924;15.474;2023-12-04T03:23:36;98587.09;;;-6.44;100.00
27202;BME280;14717;46.924;15.474;2023-12-04T03:26:02;98593.28;;;-6.51;100.00
27202;BME280;14717;46.924;15.474;2023-12-04T03:28:27;98587.06;;;-6.36;100.00
27202;BME280;14717;46.924;15.474;2023-12-04T03:30:53;98588.41;;;-6.40;100.00
27202;BME280;14717;46.924;15.474;2023-12-04T03:33:18;98581.19;;;-6.32;100.00
27202;BME280;14717;46.924;15.474;2023-12-04T03:35:44;98582.06;;;-6.47;100.00
27202;BME280;14717;46.924;15.474;2023-12-04T03:38:09;98586.59;;;-6.63;100.00
27202;BME280;14717;46.924;15.474;2023-12-04T03:40:34;98582.88;;;-6.62;100.00
27202;BME280;14717;46.924;15.474;2023-12-04T03:43:00;98577.53;;;-6.62;100.00
27202;BME280;14717;46.924;15.474;2023-12-04T03:45:25;98578.88;;;-6.58;100.00
27202;BME280;14717;46.924;15.474;2023-12-04T03:47:50;98579.53;;;-6.56;100.00
27202;BME280;14717;46.924;15.474;2023-12-04T03:50:16;98575.69;;;-6.62;100.00
27202;BME280;14717;46.924;15.474;2023-12-04T03:52:41;98571.50;;;-6.72;100.00
27202;BME280;14717;46.924;15.474;2023-12-04T03:55:08;98570.66;;;-6.57;100.00
27202;BME280;14717;46.924;15.474;2023-12-04T03:57:33;98571.97;;;-6.37;100.00
27202;BME280;14717;46.924;15.474;2023-12-04T03:59:58;98573.28;;;-6.33;100.00
27202;BME280;14717;46.924;15.474;2023-12-04T04:02:24;98568.56;;;-6.23;100.00
27202;BME280;14717;46.924;15.474;2023-12-04T04:04:50;98571.25;;;-6.31;100.00
27202;BME280;14717;46.924;15.474;2023-12-04T04:07:16;98569.13;;;-6.51;100.00
27202;BME280;14717;46.924;15.474;2023-12-04T04:09:43;98570.09;;;-6.36;100.00
27202;BME280;14717;46.924;15.474;2023-12-04T04:12:08;98564.72;;;-6.29;100.00
27202;BME280;14717;46.924;15.474;2023-12-04T04:14:34;98556.66;;;-6.21;100.00
27202;BME280;14717;46.924;15.474;2023-12-04T04:16:59;98554.31;;;-6.24;100.00
27202;BME280;14717;46.924;15.474;2023-12-04T04:19:24;98565.06;;;-6.32;100.00
27202;BME280;14717;46.924;15.474;2023-12-04T04:21:50;98564.06;;;-6.23;100.00
27202;BME280;14717;46.924;15.474;2023-12-04T04:24:15;98569.06;;;-6.20;100.00
27202;BME280;14717;46.924;15.474;2023-12-04T04:26:40;98565.38;;;-6.19;100.00
27202;BME280;14717;46.924;15.474;2023-12-04T04:29:06;98553.31;;;-6.23;100.00
27202;BME280;14717;46.924;15.474;2023-12-04T04:31:31;98559.38;;;-6.44;100.00
27202;BME280;14717;46.924;15.474;2023-12-04T04:33:56;98558.94;;;-6.64;100.00
27202;BME280;14717;46.924;15.474;2023-12-04T04:36:22;98556.19;;;-6.56;100.00
27202;BME280;14717;46.924;15.474;2023-12-04T04:38:47;98564.47;;;-6.73;100.00
27202;BME280;14717;46.924;15.474;2023-12-04T04:41:15;98575.88;;;-6.63;100.00
27202;BME280;14717;46.924;15.474;2023-12-04T04:43:41;98566.44;;;-6.51;100.00
27202;BME280;14717;46.924;15.474;2023-12-04T04:46:07;98567.81;;;-6.55;100.00
27202;BME280;14717;46.924;15.474;2023-12-04T04:48:32;98570.66;;;-6.49;100.00
27202;BME280;14717;46.924;15.474;2023-12-04T04:50:58;98564.25;;;-6.56;100.00
27202;BME280;14717;46.924;15.474;2023-12-04T04:53:23;98563.75;;;-6.67;100.00
27202;BME280;14717;46.924;15.474;2023-12-04T04:55:48;98573.66;;;-6.52;100.00
27202;BME280;14717;46.924;15.474;2023-12-04T04:58:14;98570.97;;;-6.44;100.00
27202;BME280;14717;46.924;15.474;2023-12-04T05:00:39;98567.28;;;-6.51;100.00
27202;BME280;14717;46.924;15.474;2023-12-04T05:03:04;98573.84;;;-6.61;100.00
27202;BME280;14717;46.924;15.474;2023-12-04T05:05:30;98574.16;;;-6.72;100.00
27202;BME280;14717;46.924;15.474;2023-12-04T05:07:55;98570.66;;;-6.73;100.00
27202;BME280;14717;46.924;15.474;2023-12-04T05:10:20;98577.53;;;-6.62;100.00
27202;BME280;14717;46.924;15.474;2023-12-04T05:12:46;98575.53;;;-6.76;100.00
27202;BME280;14717;46.924;15.474;2023-12-04T05:15:11;98573.34;;;-6.73;100.00
27202;BME280;14717;46.924;15.474;2023-12-04T05:17:36;98573.00;;;-6.77;100.00
27202;BME280;14717;46.924;15.474;2023-12-04T05:20:02;98572.03;;;-6.69;100.00
27202;BME280;14717;46.924;15.474;2023-12-04T05:22:27;98579.38;;;-6.63;100.00
27202;BME280;14717;46.924;15.474;2023-12-04T05:24:53;98572.69;;;-6.75;100.00
27202;BME280;14717;46.924;15.474;2023-12-04T05:27:18;98580.41;;;-6.79;100.00
27202;BME280;14717;46.924;15.474;2023-12-04T05:29:43;98571.19;;;-6.85;100.00
27202;BME280;14717;46.924;15.474;2023-12-04T05:32:09;98567.13;;;-6.97;100.00
27202;BME280;14717;46.924;15.474;2023-12-04T05:34:34;98571.31;;;-7.10;100.00
27202;BME280;14717;46.924;15.474;2023-12-04T05:37:00;98577.19;;;-7.07;100.00
27202;BME280;14717;46.924;15.474;2023-12-04T05:39:25;98567.47;;;-7.08;100.00
27202;BME280;14717;46.924;15.474;2023-12-04T05:41:50;98564.31;;;-7.11;100.00
27202;BME280;14717;46.924;15.474;2023-12-04T05:44:16;98567.47;;;-7.16;100.00
27202;BME280;14717;46.924;15.474;2023-12-04T05:46:41;98566.81;;;-6.94;100.00
27202;BME280;14717;46.924;15.474;2023-12-04T05:49:07;98567.16;;;-6.73;100.00
27202;BME280;14717;46.924;15.474;2023-12-04T05:51:32;98572.50;;;-6.65;100.00
27202;BME280;14717;46.924;15.474;2023-12-04T05:53:57;98570.66;;;-6.80;100.00
27202;BME280;14717;46.924;15.474;2023-12-04T05:56:23;98574.88;;;-6.78;100.00
27202;BME280;14717;46.924;15.474;2023-12-04T05:58:48;98567.81;;;-6.79;100.00
27202;BME280;14717;46.924;15.474;2023-12-04T06:01:14;98564.28;;;-6.72;100.00
27202;BME280;14717;46.924;15.474;2023-12-04T06:03:40;98560.41;;;-6.69;100.00
27202;BME280;14717;46.924;15.474;2023-12-04T06:06:06;98566.16;;;-6.80;100.00
27202;BME280;14717;46.924;15.474;2023-12-04T06:08:31;98578.19;;;-6.92;100.00
27202;BME280;14717;46.924;15.474;2023-12-04T06:10:56;98573.88;;;-6.93;100.00
27202;BME280;14717;46.924;15.474;2023-12-04T06:13:22;98568.50;;;-6.85;100.00
27202;BME280;14717;46.924;15.474;2023-12-04T06:15:47;98571.00;;;-7.07;100.00
27202;BME280;14717;46.924;15.474;2023-12-04T06:18:13;98565.63;;;-7.15;100.00
27202;BME280;14717;46.924;15.474;2023-12-04T06:20:38;98567.78;;;-7.26;100.00
27202;BME280;14717;46.924;15.474;2023-12-04T06:23:04;98570.47;;;-7.18;100.00
27202;BME280;14717;46.924;15.474;2023-12-04T06:25:29;98566.63;;;-7.00;100.00
27202;BME280;14717;46.924;15.474;2023-12-04T06:27:55;98561.94;;;-6.90;100.00
27202;BME280;14717;46.924;15.474;2023-12-04T06:30:21;98571.84;;;-6.83;100.00
27202;BME280;14717;46.924;15.474;2023-12-04T06:32:46;98563.97;;;-6.92;100.00
27202;BME280;14717;46.924;15.474;2023-12-04T06:35:12;98568.00;;;-6.96;100.00
27202;BME280;14717;46.924;15.474;2023-12-04T06:37:38;98579.22;;;-6.85;100.00
27202;BME280;14717;46.924;15.474;2023-12-04T06:40:05;98573.16;;;-6.87;100.00
27202;BME280;14717;46.924;15.474;2023-12-04T06:42:34;98567.13;;;-6.81;100.00
27202;BME280;14717;46.924;15.474;2023-12-04T06:45:00;98566.47;;;-6.75;100.00
27202;BME280;14717;46.924;15.474;2023-12-04T06:47:26;98565.78;;;-6.77;100.00
27202;BME280;14717;46.924;15.474;2023-12-04T06:49:52;98566.81;;;-6.94;100.00
27202;BME280;14717;46.924;15.474;2023-12-04T06:52:18;98552.22;;;-7.07;100.00
27202;BME280;14717;46.924;15.474;2023-12-04T06:54:43;98547.50;;;-7.05;100.00
27202;BME280;14717;46.924;15.474;2023-12-04T06:57:08;98558.94;;;-6.79;100.00
27202;BME280;14717;46.924;15.474;2023-12-04T06:59:34;98551.69;;;-6.71;100.00
27202;BME280;14717;46.924;15.474;2023-12-04T07:01:59;98551.53;;;-6.62;100.00
27202;BME280;14717;46.924;15.474;2023-12-04T07:04:24;98545.28;;;-6.54;100.00
27202;BME280;14717;46.924;15.474;2023-12-04T07:06:50;98553.03;;;-6.67;100.00
27202;BME280;14717;46.924;15.474;2023-12-04T07:09:16;98558.41;;;-6.67;100.00
27202;BME280;14717;46.924;15.474;2023-12-04T07:11:44;98565.59;;;-6.44;100.00
27202;BME280;14717;46.924;15.474;2023-12-04T07:14:10;98558.03;;;-6.32;100.00
27202;BME280;14717;46.924;15.474;2023-12-04T07:16:41;98557.81;;;-6.23;100.00
27202;BME280;14717;46.924;15.474;2023-12-04T07:19:08;98552.44;;;-6.23;100.00
27202;BME280;14717;46.924;15.474;2023-12-04T07:21:34;98551.63;;;-6.24;100.00
27202;BME280;14717;46.924;15.474;2023-12-04T07:23:59;98558.94;;;-6.10;100.00
27202;BME280;14717;46.924;15.474;2023-12-04T07:26:24;98557.59;;;-6.06;100.00
27202;BME280;14717;46.924;15.474;2023-12-04T07:28:50;98558.78;;;-6.08;100.00
27202;BME280;14717;46.924;15.474;2023-12-04T07:31:15;98539.34;;;-6.26;100.00
27202;BME280;14717;46.924;15.474;2023-12-04T07:33:40;98549.59;;;-6.22;100.00
27202;BME280;14717;46.924;15.474;2023-12-04T07:36:06;98552.25;;;-6.14;100.00
27202;BME280;14717;46.924;15.474;2023-12-04T07:38:32;98550.22;;;-6.12;100.00
27202;BME280;14717;46.924;15.474;2023-12-04T07:40:57;98552.22;;;-5.98;100.00
27202;BME280;14717;46.924;15.474;2023-12-04T07:43:23;98560.69;;;-5.87;100.00
27202;BME280;14717;46.924;15.474;2023-12-04T07:45:48;98546.50;;;-5.73;100.00
27202;BME280;14717;46.924;15.474;2023-12-04T07:48:14;98543.94;;;-5.58;100.00
27202;BME280;14717;46.924;15.474;2023-12-04T07:50:39;98547.88;;;-5.47;100.00
27202;BME280;14717;46.924;15.474;2023-12-04T07:53:05;98546.34;;;-5.41;100.00
27202;BME280;14717;46.924;15.474;2023-12-04T07:55:33;98548.22;;;-5.50;100.00
27202;BME280;14717;46.924;15.474;2023-12-04T07:57:58;98546.53;;;-5.51;100.00
27202;BME280;14717;46.924;15.474;2023-12-04T08:00:23;98539.81;;;-5.47;100.00
27202;BME280;14717;46.924;15.474;2023-12-04T08:02:50;98548.16;;;-5.34;100.00
27202;BME280;14717;46.924;15.474;2023-12-04T08:05:16;98551.16;;;-5.29;100.00
27202;BME280;14717;46.924;15.474;2023-12-04T08:07:42;98549.94;;;-5.26;100.00
27202;BME280;14717;46.924;15.474;2023-12-04T08:10:08;98548.19;;;-5.42;100.00
27202;BME280;14717;46.924;15.474;2023-12-04T08:12:34;98546.94;;;-5.31;100.00
27202;BME280;14717;46.924;15.474;2023-12-04T08:15:00;98542.59;;;-5.32;100.00
27202;BME280;14717;46.924;15.474;2023-12-04T08:17:26;98535.81;;;-5.28;100.00
27202;BME280;14717;46.924;15.474;2023-12-04T08:19:52;98542.34;;;-5.23;100.00
27202;BME280;14717;46.924;15.474;2023-12-04T08:22:17;98544.56;;;-5.04;100.00
27202;BME280;14717;46.924;15.474;2023-12-04T08:24:43;98532.47;;;-4.86;100.00
27202;BME280;14717;46.924;15.474;2023-12-04T08:27:08;98539.28;;;-4.75;100.00
27202;BME280;14717;46.924;15.474;2023-12-04T08:29:34;98528.19;;;-4.58;100.00
27202;BME280;14717;46.924;15.474;2023-12-04T08:32:00;98528.38;;;-4.60;100.00
27202;BME280;14717;46.924;15.474;2023-12-04T08:34:25;98519.00;;;-4.49;100.00
27202;BME280;14717;46.924;15.474;2023-12-04T08:36:50;98519.47;;;-4.46;100.00
27202;BME280;14717;46.924;15.474;2023-12-04T08:39:16;98513.28;;;-4.32;100.00
27202;BME280;14717;46.924;15.474;2023-12-04T08:41:45;98509.19;;;-4.14;100.00
27202;BME280;14717;46.924;15.474;2023-12-04T08:44:11;98514.69;;;-4.07;100.00
27202;BME280;14717;46.924;15.474;2023-12-04T08:46:36;98515.78;;;-3.87;100.00
27202;BME280;14717;46.924;15.474;2023-12-04T08:49:02;98502.59;;;-3.62;100.00
27202;BME280;14717;46.924;15.474;2023-12-04T08:51:27;98518.22;;;-3.43;100.00
27202;BME280;14717;46.924;15.474;2023-12-04T08:53:52;98511.41;;;-3.39;100.00
27202;BME280;14717;46.924;15.474;2023-12-04T08:56:18;98503.56;;;-3.34;100.00
27202;BME280;14717;46.924;15.474;2023-12-04T08:58:44;98497.84;;;-3.25;100.00
27202;BME280;14717;46.924;15.474;2023-12-04T09:01:09;98497.03;;;-3.04;100.00
27202;BME280;14717;46.924;15.474;2023-12-04T09:03:35;98495.34;;;-2.85;100.00
27202;BME280;14717;46.924;15.474;2023-12-04T09:06:01;98496.91;;;-2.76;100.00
27202;BME280;14717;46.924;15.474;2023-12-04T09:08:26;98499.81;;;-2.50;100.00
27202;BME280;14717;46.924;15.474;2023-12-04T09:10:52;98486.63;;;-2.32;100.00
27202;BME280;14717;46.924;15.474;2023-12-04T09:13:17;98487.34;;;-2.17;100.00
27202;BME280;14717;46.924;15.474;2023-12-04T09:15:43;98491.84;;;-2.04;100.00
27202;BME280;14717;46.924;15.474;2023-12-04T09:18:08;98493.28;;;-2.01;100.00
27202;BME280;14717;46.924;15.474;2023-12-04T09:20:34;98483.75;;;-1.91;100.00
27202;BME280;14717;46.924;15.474;2023-12-04T09:22:59;98473.41;;;-1.81;100.00
27202;BME280;14717;46.924;15.474;2023-12-04T09:25:25;98458.69;;;-1.72;100.00
27202;BME280;14717;46.924;15.474;2023-12-04T09:27:50;98456.38;;;-1.75;100.00
27202;BME280;14717;46.924;15.474;2023-12-04T09:30:15;98450.31;;;-1.83;100.00
27202;BME280;14717;46.924;15.474;2023-12-04T09:32:41;98450.59;;;-1.66;100.00
27202;BME280;14717;46.924;15.474;2023-12-04T09:35:06;98439.19;;;-1.48;100.00
27202;BME280;14717;46.924;15.474;2023-12-04T09:37:32;98449.44;;;-1.37;100.00
27202;BME280;14717;46.924;15.474;2023-12-04T09:39:57;98438.63;;;-1.25;100.00
27202;BME280;14717;46.924;15.474;2023-12-04T09:42:23;98445.50;;;-1.28;100.00
27202;BME280;14717;46.924;15.474;2023-12-04T09:44:48;98436.78;;;-1.18;100.00
27202;BME280;14717;46.924;15.474;2023-12-04T09:47:18;98436.78;;;-1.18;100.00
27202;BME280;14717;46.924;15.474;2023-12-04T09:49:44;98428.03;;;-1.07;100.00
27202;BME280;14717;46.924;15.474;2023-12-04T09:52:10;98418.03;;;-0.93;100.00
27202;BME280;14717;46.924;15.474;2023-12-04T09:54:35;98408.03;;;-0.80;100.00
27202;BME280;14717;46.924;15.474;2023-12-04T09:57:03;98401.34;;;-0.84;100.00
27202;BME280;14717;46.924;15.474;2023-12-04T09:59:29;98403.03;;;-0.77;100.00
27202;BME280;14717;46.924;15.474;2023-12-04T10:01:55;98400.13;;;-0.75;100.00
27202;BME280;14717;46.924;15.474;2023-12-04T10:04:21;98392.59;;;-0.67;100.00
27202;BME280;14717;46.924;15.474;2023-12-04T10:06:50;98398.84;;;-0.60;100.00
27202;BME280;14717;46.924;15.474;2023-12-04T10:09:17;98386.31;;;-0.54;100.00
27202;BME280;14717;46.924;15.474;2023-12-04T10:11:44;98379.66;;;-0.58;100.00
27202;BME280;14717;46.924;15.474;2023-12-04T10:14:28;98383.38;;;-0.40;100.00
27202;BME280;14717;46.924;15.474;2023-12-04T10:16:53;98370.00;;;-0.35;100.00
27202;BME280;14717;46.924;15.474;2023-12-04T10:19:26;98372.31;;;-0.39;100.00
27202;BME280;14717;46.924;15.474;2023-12-04T10:21:54;98362.94;;;-0.36;100.00
27202;BME280;14717;46.924;15.474;2023-12-04T10:24:28;98354.94;;;-0.25;100.00
27202;BME280;14717;46.924;15.474;2023-12-04T10:26:53;98351.16;;;-0.17;100.00
27202;BME280;14717;46.924;15.474;2023-12-04T10:29:19;98356.56;;;-0.11;100.00
27202;BME280;14717;46.924;15.474;2023-12-04T10:31:44;98341.16;;;-0.23;99.95
27202;BME280;14717;46.924;15.474;2023-12-04T10:34:09;98329.91;;;-0.27;100.00
27202;BME280;14717;46.924;15.474;2023-12-04T10:36:36;98329.47;;;-0.24;97.04
27202;BME280;14717;46.924;15.474;2023-12-04T10:39:02;98325.31;;;-0.26;97.09
27202;BME280;14717;46.924;15.474;2023-12-04T10:41:31;98323.41;;;-0.13;96.96
27202;BME280;14717;46.924;15.474;2023-12-04T10:43:59;98318.16;;;-0.08;95.78
27202;BME280;14717;46.924;15.474;2023-12-04T10:46:26;98317.28;;;-0.02;94.94
27202;BME280;14717;46.924;15.474;2023-12-04T10:48:52;98316.81;;;0.07;95.42
27202;BME280;14717;46.924;15.474;2023-12-04T10:51:17;98320.09;;;0.22;92.69
27202;BME280;14717;46.924;15.474;2023-12-04T10:53:44;98308.16;;;0.30;92.50
27202;BME280;14717;46.924;15.474;2023-12-04T10:56:23;98304.09;;;0.39;92.78
27202;BME280;14717;46.924;15.474;2023-12-04T10:58:51;98301.31;;;0.14;93.41
27202;BME280;14717;46.924;15.474;2023-12-04T11:01:19;98298.91;;;0.00;90.91
27202;BME280;14717;46.924;15.474;2023-12-04T11:03:47;98297.03;;;0.00;94.75
27202;BME280;14717;46.924;15.474;2023-12-04T11:06:16;98296.56;;;0.10;93.57
27202;BME280;14717;46.924;15.474;2023-12-04T11:08:42;98296.94;;;0.20;93.56
27202;BME280;14717;46.924;15.474;2023-12-04T11:11:12;98281.97;;;-0.02;92.22
27202;BME280;14717;46.924;15.474;2023-12-04T11:13:41;98287.53;;;-0.21;94.85
27202;BME280;14717;46.924;15.474;2023-12-04T11:16:31;98286.56;;;0.04;94.74
27202;BME280;14717;46.924;15.474;2023-12-04T11:19:23;98280.66;;;0.13;93.04
27202;BME280;14717;46.924;15.474;2023-12-04T11:21:53;98281.66;;;0.19;92.40
27202;BME280;14717;46.924;15.474;2023-12-04T11:24:23;98264.88;;;0.35;91.55
27202;BME280;14717;46.924;15.474;2023-12-04T11:26:49;98257.81;;;0.27;88.50
27202;BME280;14717;46.924;15.474;2023-12-04T11:29:15;98266.50;;;0.36;91.63
27202;BME280;14717;46.924;15.474;2023-12-04T11:31:42;98243.66;;;0.19;90.98
27202;BME280;14717;46.924;15.474;2023-12-04T11:34:08;98244.00;;;0.29;92.78
27202;BME280;14717;46.924;15.474;2023-12-04T11:36:36;98237.75;;;0.28;92.20
27202;BME280;14717;46.924;15.474;2023-12-04T11:39:02;98224.59;;;0.25;93.43
27202;BME280;14717;46.924;15.474;2023-12-04T11:41:29;98227.97;;;0.51;94.01
27202;BME280;14717;46.924;15.474;2023-12-04T11:43:55;98222.19;;;0.42;93.15
27202;BME280;14717;46.924;15.474;2023-12-04T11:46:23;98220.06;;;0.43;93.59
27202;BME280;14717;46.924;15.474;2023-12-04T11:48:49;98211.41;;;0.29;93.87
27202;BME280;14717;46.924;15.474;2023-12-04T11:54:09;98204.13;;;-0.01;100.00
27202;BME280;14717;46.924;15.474;2023-12-04T11:56:35;98216.13;;;-0.22;99.88
27202;BME280;14717;46.924;15.474;2023-12-04T11:59:04;98205.50;;;-0.30;100.00
27202;BME280;14717;46.924;15.474;2023-12-04T12:01:36;98213.34;;;-0.09;100.00
27202;BME280;14717;46.924;15.474;2023-12-04T12:04:05;98206.25;;;0.21;100.00
27202;BME280;14717;46.924;15.474;2023-12-04T12:06:31;98207.53;;;0.42;100.00
27202;BME280;14717;46.924;15.474;2023-12-04T12:08:56;98204.09;;;0.53;98.83
27202;BME280;14717;46.924;15.474;2023-12-04T12:11:23;98203.06;;;0.54;99.47
27202;BME280;14717;46.924;15.474;2023-12-04T12:13:49;98192.81;;;0.56;99.32
27202;BME280;14717;46.924;15.474;2023-12-04T12:16:14;98190.91;;;0.57;99.85
27202;BME280;14717;46.924;15.474;2023-12-04T12:18:40;98189.81;;;0.64;99.26
27202;BME280;14717;46.924;15.474;2023-12-04T12:21:06;98184.53;;;0.69;98.35
27202;BME280;14717;46.924;15.474;2023-12-04T12:23:33;98184.69;;;0.74;98.23
27202;BME280;14717;46.924;15.474;2023-12-04T12:25:59;98173.81;;;0.74;97.53
27202;BME280;14717;46.924;15.474;2023-12-04T12:28:25;98162.47;;;0.77;97.91
27202;BME280;14717;46.924;15.474;2023-12-04T12:30:50;98160.41;;;0.79;98.46
27202;BME280;14717;46.924;15.474;2023-12-04T12:33:15;98155.13;;;0.84;98.55
27202;BME280;14717;46.924;15.474;2023-12-04T12:35:41;98134.69;;;0.75;97.49
27202;BME280;14717;46.924;15.474;2023-12-04T12:38:07;98126.22;;;0.65;99.62
27202;BME280;14717;46.924;15.474;2023-12-04T12:40:33;98123.91;;;0.27;99.13